createdAt,value
2022-12-27T00:01:33.379Z,101140.69
2022-12-27T00:03:59.845Z,101142.25
2022-12-27T00:06:27.698Z,101146.84
2022-12-27T00:08:55.026Z,101141.09
2022-12-27T00:11:23.996Z,101146.03
2022-12-27T00:13:50.880Z,101137.78
2022-12-27T00:16:20.850Z,101151.19
2022-12-27T00:18:47.846Z,101155.34
2022-12-27T00:21:15.059Z,101152.09
2022-12-27T00:23:43.793Z,101155.09
2022-12-27T00:26:12.467Z,101152.28
2022-12-27T00:28:39.269Z,101147.34
2022-12-27T00:31:06.315Z,101148.59
2022-12-27T00:33:35.551Z,101160.34
2022-12-27T00:36:03.893Z,101160.66
2022-12-27T00:38:30.917Z,101155.59
2022-12-27T00:40:57.343Z,101156.91
2022-12-27T00:43:23.860Z,101160.69
2022-12-27T00:45:50.391Z,101167.34
2022-12-27T00:48:16.753Z,101164.31
2022-12-27T00:50:45.303Z,101172.97
2022-12-27T00:53:12.443Z,101175.13
2022-12-27T00:55:38.915Z,101182.41
2022-12-27T00:58:05.501Z,101178.16
2022-12-27T01:00:31.863Z,101167.47
2022-12-27T01:02:58.235Z,101175.47
2022-12-27T01:05:24.621Z,101185.91
2022-12-27T01:07:52.305Z,101192.75
2022-12-27T01:10:18.686Z,101189.78
2022-12-27T01:12:45.078Z,101196.56
2022-12-27T01:15:12.244Z,101201.38
2022-12-27T01:17:38.589Z,101205.75
2022-12-27T01:20:06.076Z,101211.38
2022-12-27T01:22:32.441Z,101206.25
2022-12-27T01:25:00.156Z,101215.22
2022-12-27T01:27:26.803Z,101217.72
2022-12-27T01:29:53.164Z,101213.56
2022-12-27T01:32:19.569Z,101214.28
2022-12-27T01:34:46.038Z,101214.28
2022-12-27T01:37:12.385Z,101209.84
2022-12-27T01:39:38.770Z,101216.38
2022-12-27T01:42:15.653Z,101206.88
2022-12-27T01:44:52.792Z,101206.13
2022-12-27T01:47:25.850Z,101215.72
2022-12-27T01:49:59.298Z,101212.88
2022-12-27T01:52:34.930Z,101213.81
2022-12-27T01:55:08.321Z,101211.31
2022-12-27T01:57:36.039Z,101220.63
2022-12-27T02:00:02.690Z,101221.69
2022-12-27T02:02:29.182Z,101221.06
2022-12-27T02:04:55.720Z,101224.94
2022-12-27T02:07:27.054Z,101231.13
2022-12-27T02:09:57.007Z,101238.28
2022-12-27T02:12:25.722Z,101233.22
2022-12-27T02:14:53.447Z,101238.63
2022-12-27T02:17:23.137Z,101240.38
2022-12-27T02:19:58.009Z,101244.72
2022-12-27T02:23:07.543Z,101236.88
2022-12-27T02:25:52.995Z,101242.47
2022-12-27T02:28:36.618Z,101243.53
2022-12-27T02:31:08.780Z,101246.72
2022-12-27T02:33:41.957Z,101251.03
2022-12-27T02:36:11.979Z,101244.72
2022-12-27T02:38:42.388Z,101250.38
2022-12-27T02:41:11.477Z,101240.53
2022-12-27T02:43:37.840Z,101240.03
2022-12-27T02:46:13.392Z,101238.31
2022-12-27T02:48:51.539Z,101247.22
2022-12-27T02:51:36.506Z,101244.38
2022-12-27T02:54:16.464Z,101238.72
2022-12-27T02:56:57.114Z,101238.03
2022-12-27T02:59:36.392Z,101235.44
2022-12-27T03:02:12.793Z,101240.22
2022-12-27T03:04:53.506Z,101247.09
2022-12-27T03:07:30.709Z,101237.28
2022-12-27T03:10:12.969Z,101249.63
2022-12-27T03:12:49.375Z,101244.47
2022-12-27T03:15:33.334Z,101237.22
2022-12-27T03:18:08.258Z,101244.88
2022-12-27T03:20:38.639Z,101242.19
2022-12-27T03:23:05.266Z,101243.19
2022-12-27T03:25:35.700Z,101248.97
2022-12-27T03:28:06.116Z,101234.47
2022-12-27T03:30:32.821Z,101246.34
2022-12-27T03:33:04.495Z,101249.88
2022-12-27T03:35:35.380Z,101251.72
2022-12-27T03:38:03.937Z,101255.53
2022-12-27T03:40:41.650Z,101252.22
2022-12-27T03:43:13.438Z,101249.81
2022-12-27T03:45:54.556Z,101250.75
2022-12-27T03:48:26.763Z,101245.88
2022-12-27T03:50:56.628Z,101247.38
2022-12-27T03:53:28.743Z,101251.81
2022-12-27T03:55:55.679Z,101255.53
2022-12-27T03:58:22.164Z,101262.88
2022-12-27T04:00:48.550Z,101247.31
2022-12-27T04:03:14.983Z,101253.72
2022-12-27T04:05:42.685Z,101249.84
2022-12-27T04:08:09.075Z,101247.00
2022-12-27T04:10:35.479Z,101257.47
2022-12-27T04:13:01.859Z,101254.53
2022-12-27T04:15:28.334Z,101257.94
2022-12-27T04:17:54.728Z,101258.63
2022-12-27T04:20:21.417Z,101248.31
2022-12-27T04:22:49.109Z,101264.84
2022-12-27T04:25:15.497Z,101258.53
2022-12-27T04:27:42.080Z,101261.94
2022-12-27T04:30:09.864Z,101253.34
2022-12-27T04:32:36.228Z,101251.94
2022-12-27T04:35:02.736Z,101264.03
2022-12-27T04:37:29.442Z,101256.63
2022-12-27T04:39:57.098Z,101258.38
2022-12-27T04:42:23.433Z,101260.19
2022-12-27T04:44:49.905Z,101258.03
2022-12-27T04:47:21.690Z,101244.63
2022-12-27T04:49:48.165Z,101254.06
2022-12-27T04:52:16.683Z,101250.03
2022-12-27T04:54:44.276Z,101253.72
2022-12-27T04:57:11.953Z,101268.56
2022-12-27T04:59:38.297Z,101264.03
2022-12-27T05:02:04.844Z,101246.88
2022-12-27T05:04:32.713Z,101254.53
2022-12-27T05:06:59.445Z,101259.22
2022-12-27T05:09:25.816Z,101269.09
2022-12-27T05:11:52.159Z,101258.25
2022-12-27T05:14:19.878Z,101261.38
2022-12-27T05:16:46.280Z,101275.97
2022-12-27T05:19:14.513Z,101262.19
2022-12-27T05:21:43.599Z,101271.13
2022-12-27T05:24:10.153Z,101265.72
2022-12-27T05:26:37.027Z,101273.94
2022-12-27T05:29:03.399Z,101280.38
2022-12-27T05:31:31.759Z,101283.50
2022-12-27T05:33:58.226Z,101275.53
2022-12-27T05:36:25.348Z,101276.22
2022-12-27T05:38:51.848Z,101279.38
2022-12-27T05:41:18.502Z,101289.22
2022-12-27T05:43:45.256Z,101285.19
2022-12-27T05:46:13.667Z,101283.38
2022-12-27T05:48:41.863Z,101295.78
2022-12-27T05:51:11.209Z,101299.28
2022-12-27T05:53:37.712Z,101306.78
2022-12-27T05:56:04.578Z,101303.03
2022-12-27T05:58:31.335Z,101309.09
2022-12-27T06:00:58.755Z,101312.28
2022-12-27T06:03:25.351Z,101310.88
2022-12-27T06:05:59.925Z,101310.44
2022-12-27T06:08:26.268Z,101315.38
2022-12-27T06:11:01.452Z,101329.03
2022-12-27T06:13:27.801Z,101321.22
2022-12-27T06:15:54.149Z,101324.69
2022-12-27T06:18:20.526Z,101329.72
2022-12-27T06:20:46.875Z,101331.47
2022-12-27T06:23:14.556Z,101336.03
2022-12-27T06:25:40.939Z,101348.56
2022-12-27T06:28:07.282Z,101355.00
2022-12-27T06:30:36.309Z,101346.38
2022-12-27T06:33:02.955Z,101351.88
2022-12-27T06:35:29.292Z,101356.41
2022-12-27T06:37:55.629Z,101355.19
2022-12-27T06:40:23.332Z,101353.56
2022-12-27T06:42:49.688Z,101359.78
2022-12-27T06:45:16.332Z,101359.66
2022-12-27T06:47:42.929Z,101364.72
2022-12-27T06:50:10.091Z,101351.63
2022-12-27T06:52:36.444Z,101355.66
2022-12-27T06:55:03.925Z,101371.41
2022-12-27T06:57:31.700Z,101371.84
2022-12-27T06:59:58.037Z,101368.72
2022-12-27T07:02:24.514Z,101366.56
2022-12-27T07:04:50.852Z,101377.47
2022-12-27T07:07:17.227Z,101380.09
2022-12-27T07:09:43.617Z,101383.72
2022-12-27T07:12:09.997Z,101375.53
2022-12-27T07:14:37.763Z,101379.69
2022-12-27T07:17:04.150Z,101398.06
2022-12-27T07:19:30.495Z,101401.53
2022-12-27T07:21:56.894Z,101412.25
2022-12-27T07:24:23.317Z,101407.75
2022-12-27T07:26:49.667Z,101403.91
2022-12-27T07:29:16.149Z,101403.69
2022-12-27T07:31:43.859Z,101417.16
2022-12-27T07:34:10.266Z,101415.19
2022-12-27T07:36:38.993Z,101428.34
2022-12-27T07:39:07.171Z,101424.66
2022-12-27T07:41:33.827Z,101434.44
2022-12-27T07:44:00.288Z,101436.44
2022-12-27T07:46:26.742Z,101440.03
2022-12-27T07:48:55.600Z,101446.50
2022-12-27T07:51:22.642Z,101446.78
2022-12-27T07:53:49.882Z,101448.50
2022-12-27T07:56:25.246Z,101461.59
2022-12-27T07:58:54.088Z,101467.38
2022-12-27T08:01:21.957Z,101463.47
2022-12-27T08:03:48.658Z,101468.91
2022-12-27T08:06:23.160Z,101475.00
2022-12-27T08:08:51.213Z,101475.75
2022-12-27T08:11:17.592Z,101481.03
2022-12-27T08:13:44.603Z,101476.03
2022-12-27T08:16:16.237Z,101473.19
2022-12-27T08:18:42.709Z,101482.41
2022-12-27T08:21:09.094Z,101476.19
2022-12-27T08:23:36.768Z,101478.41
2022-12-27T08:26:03.197Z,101474.28
2022-12-27T08:28:29.628Z,101486.56
2022-12-27T08:30:56.024Z,101481.25
2022-12-27T08:33:22.403Z,101494.66
2022-12-27T08:35:53.625Z,101497.69
2022-12-27T08:38:20.862Z,101504.09
2022-12-27T08:40:48.643Z,101512.06
2022-12-27T08:43:15.301Z,101519.63
2022-12-27T08:45:41.898Z,101509.16
2022-12-27T08:48:08.988Z,101522.38
2022-12-27T08:50:35.448Z,101526.53
2022-12-27T08:53:03.922Z,101525.41
2022-12-27T08:55:31.855Z,101528.59
2022-12-27T08:58:00.870Z,101537.00
2022-12-27T09:00:28.526Z,101538.25
2022-12-27T09:02:54.979Z,101536.69
2022-12-27T09:05:22.134Z,101550.34
2022-12-27T09:07:49.063Z,101542.09
2022-12-27T09:10:16.147Z,101558.03
2022-12-27T09:12:44.311Z,101559.72
2022-12-27T09:15:12.535Z,101553.09
2022-12-27T09:17:39.434Z,101563.72
2022-12-27T09:20:07.136Z,101558.13
2022-12-27T09:22:33.828Z,101556.66
2022-12-27T09:25:00.284Z,101564.25
2022-12-27T09:27:26.738Z,101565.09
2022-12-27T09:29:53.161Z,101557.97
2022-12-27T09:32:20.865Z,101564.38
2022-12-27T09:34:47.234Z,101555.88
2022-12-27T09:37:13.582Z,101568.94
2022-12-27T09:39:39.955Z,101574.59
2022-12-27T09:45:14.318Z,101582.09
2022-12-27T09:47:48.216Z,101577.19
2022-12-27T09:50:19.368Z,101579.69
2022-12-27T09:52:55.114Z,101591.59
2022-12-27T09:55:28.318Z,101590.56
2022-12-27T09:58:04.270Z,101580.59
2022-12-27T10:00:35.104Z,101582.03
2022-12-27T10:03:05.372Z,101583.84
2022-12-27T10:05:34.733Z,101581.94
2022-12-27T10:08:16.822Z,101581.03
2022-12-27T10:10:50.956Z,101580.34
2022-12-27T10:13:33.885Z,101590.88
2022-12-27T10:16:15.430Z,101589.81
2022-12-27T10:18:54.716Z,101595.47
2022-12-27T10:21:23.830Z,101594.22
2022-12-27T10:23:55.429Z,101604.69
2022-12-27T10:26:21.858Z,101594.41
2022-12-27T10:28:57.193Z,101588.47
2022-12-27T10:31:25.317Z,101592.78
2022-12-27T10:33:53.619Z,101591.22
2022-12-27T10:36:23.454Z,101602.81
2022-12-27T10:38:49.850Z,101599.72
2022-12-27T10:41:26.229Z,101603.28
2022-12-27T10:43:54.266Z,101615.19
2022-12-27T10:46:27.514Z,101610.25
2022-12-27T10:51:47.049Z,101607.31
2022-12-27T10:54:16.136Z,101616.13
2022-12-27T10:56:43.336Z,101619.50
2022-12-27T10:59:18.214Z,101615.78
2022-12-27T11:01:46.335Z,101619.94
2022-12-27T11:04:21.074Z,101615.63
2022-12-27T11:06:49.687Z,101629.47
2022-12-27T11:09:25.645Z,101618.56
2022-12-27T11:11:52.637Z,101623.97
2022-12-27T11:14:20.824Z,101623.06
2022-12-27T11:16:48.740Z,101622.19
2022-12-27T11:19:24.638Z,101619.25
2022-12-27T11:21:53.138Z,101609.59
2022-12-27T11:24:21.352Z,101606.66
2022-12-27T11:26:54.259Z,101605.00
2022-12-27T11:29:24.849Z,101604.16
2022-12-27T11:31:52.597Z,101606.59
2022-12-27T11:34:26.100Z,101607.38
2022-12-27T11:36:55.716Z,101601.72
2022-12-27T11:39:42.194Z,101601.72
2022-12-27T11:42:19.622Z,101599.81
2022-12-27T11:45:03.406Z,101603.97
2022-12-27T11:47:35.601Z,101614.84
2022-12-27T11:50:23.083Z,101608.09
2022-12-27T11:53:01.750Z,101606.63
2022-12-27T11:56:05.712Z,101604.44
2022-12-27T11:59:04.012Z,101611.41
2022-12-27T12:01:55.028Z,101617.63
2022-12-27T12:04:49.764Z,101618.59
2022-12-27T12:07:36.897Z,101624.00
2022-12-27T12:10:21.253Z,101623.84
2022-12-27T12:13:23.741Z,101620.78
2022-12-27T12:16:16.773Z,101627.09
2022-12-27T12:19:19.236Z,101621.81
2022-12-27T12:21:52.342Z,101629.34
2022-12-27T12:24:34.715Z,101634.88
2022-12-27T12:27:17.702Z,101635.03
2022-12-27T12:30:04.064Z,101627.31
2022-12-27T12:32:47.058Z,101619.38
2022-12-27T12:35:31.472Z,101627.22
2022-12-27T12:38:09.692Z,101632.38
2022-12-27T12:40:55.844Z,101633.56
2022-12-27T12:43:40.068Z,101635.13
2022-12-27T12:46:20.564Z,101639.94
2022-12-27T12:49:09.141Z,101637.63
2022-12-27T12:51:56.716Z,101643.97
2022-12-27T12:54:43.387Z,101630.56
2022-12-27T12:57:24.602Z,101620.59
2022-12-27T13:00:05.776Z,101622.38
2022-12-27T13:03:03.936Z,101626.09
2022-12-27T13:05:38.382Z,101615.50
2022-12-27T13:08:14.251Z,101621.63
2022-12-27T13:11:03.562Z,101611.91
2022-12-27T13:13:41.266Z,101616.09
2022-12-27T13:16:19.449Z,101607.69
2022-12-27T13:18:54.577Z,101604.75
2022-12-27T13:21:36.730Z,101596.53
2022-12-27T13:24:09.881Z,101606.53
2022-12-27T13:26:44.752Z,101606.09
2022-12-27T13:29:34.385Z,101597.94
2022-12-27T13:32:09.271Z,101603.34
2022-12-27T13:34:47.413Z,101611.88
2022-12-27T13:37:24.350Z,101608.88
2022-12-27T13:40:23.878Z,101613.06
2022-12-27T13:43:09.173Z,101606.66
2022-12-27T13:45:47.449Z,101601.91
2022-12-27T13:48:38.918Z,101594.81
2022-12-27T13:51:22.947Z,101594.66
2022-12-27T13:54:07.987Z,101605.31
2022-12-27T13:56:53.997Z,101609.25
2022-12-27T14:00:05.828Z,101604.41
2022-12-27T14:03:11.693Z,101607.56
2022-12-27T14:06:04.726Z,101598.84
2022-12-27T14:08:56.516Z,101602.41
2022-12-27T14:11:36.329Z,101589.63
2022-12-27T14:14:05.190Z,101591.72
2022-12-27T14:16:41.311Z,101587.88
2022-12-27T14:19:24.019Z,101587.88
2022-12-27T14:22:06.383Z,101580.44
2022-12-27T14:25:18.008Z,101581.47
2022-12-27T14:28:15.158Z,101577.78
2022-12-27T14:31:20.064Z,101579.84
2022-12-27T14:34:22.912Z,101584.75
2022-12-27T14:37:19.649Z,101580.97
2022-12-27T14:40:22.003Z,101571.94
2022-12-27T14:43:30.441Z,101565.63
2022-12-27T14:46:17.423Z,101577.09
2022-12-27T14:49:20.953Z,101571.84
2022-12-27T14:52:18.830Z,101574.28
2022-12-27T14:55:15.140Z,101572.25
2022-12-27T14:57:51.359Z,101567.94
2022-12-27T15:00:20.604Z,101574.28
2022-12-27T15:03:19.314Z,101571.94
2022-12-27T15:06:02.149Z,101568.81
2022-12-27T15:08:45.676Z,101568.00
2022-12-27T15:11:36.572Z,101566.66
2022-12-27T15:14:23.262Z,101566.81
2022-12-27T15:16:58.976Z,101555.72
2022-12-27T15:19:41.481Z,101558.59
2022-12-27T15:22:17.240Z,101554.88
2022-12-27T15:24:52.462Z,101558.34
2022-12-27T15:27:27.490Z,101559.44
2022-12-27T15:30:09.108Z,101559.22
2022-12-27T15:32:52.648Z,101558.72
2022-12-27T15:35:38.126Z,101555.78
2022-12-27T15:38:10.051Z,101556.72
2022-12-27T15:40:48.961Z,101550.38
2022-12-27T15:43:26.968Z,101545.50
2022-12-27T15:46:08.354Z,101541.56
2022-12-27T15:48:53.826Z,101542.31
2022-12-27T15:51:31.933Z,101547.63
2022-12-27T15:54:22.140Z,101537.81
2022-12-27T15:57:09.797Z,101538.63
2022-12-27T15:59:42.593Z,101535.69
2022-12-27T16:02:37.350Z,101535.69
2022-12-27T16:05:32.475Z,101532.97
2022-12-27T16:08:30.705Z,101531.78
2022-12-27T16:10:58.257Z,101528.47
2022-12-27T16:13:42.908Z,101532.63
2022-12-27T16:16:32.444Z,101535.59
2022-12-27T16:19:40.374Z,101530.28
2022-12-27T16:22:23.547Z,101525.94
2022-12-27T16:24:50.113Z,101523.38
2022-12-27T16:27:28.616Z,101524.34
2022-12-27T16:29:57.174Z,101516.50
2022-12-27T16:32:26.427Z,101515.56
2022-12-27T16:34:54.545Z,101521.00
2022-12-27T16:37:26.452Z,101517.00
2022-12-27T16:40:07.145Z,101515.41
2022-12-27T16:43:22.881Z,101516.97
2022-12-27T16:45:57.623Z,101517.63
2022-12-27T16:48:35.016Z,101513.41
2022-12-27T16:51:13.088Z,101517.69
2022-12-27T16:54:01.884Z,101508.28
2022-12-27T16:56:30.946Z,101508.50
2022-12-27T16:58:57.802Z,101506.44
2022-12-27T17:02:00.975Z,101501.22
2022-12-27T17:05:00.370Z,101509.25
2022-12-27T17:07:41.570Z,101506.69
2022-12-27T17:10:44.986Z,101497.72
2022-12-27T17:13:16.001Z,101488.56
2022-12-27T17:15:51.530Z,101499.78
2022-12-27T17:18:27.230Z,101495.78
2022-12-27T17:21:00.820Z,101493.88
2022-12-27T17:23:27.620Z,101499.38
2022-12-27T17:26:06.141Z,101496.69
2022-12-27T17:28:41.701Z,101500.97
2022-12-27T17:31:17.932Z,101491.50
2022-12-27T17:33:56.741Z,101489.13
2022-12-27T17:36:36.317Z,101494.13
2022-12-27T17:39:18.146Z,101492.63
2022-12-27T17:41:55.719Z,101488.59
2022-12-27T17:44:35.116Z,101486.09
2022-12-27T17:47:15.688Z,101490.97
2022-12-27T17:49:43.146Z,101484.81
2022-12-27T17:52:16.032Z,101488.00
2022-12-27T17:54:42.436Z,101489.72
2022-12-27T17:57:11.724Z,101486.19
2022-12-27T17:59:42.883Z,101486.66
2022-12-27T18:02:17.848Z,101484.22
2022-12-27T18:04:50.415Z,101477.59
2022-12-27T18:07:24.632Z,101483.16
2022-12-27T18:09:55.065Z,101477.94
2022-12-27T18:12:23.963Z,101477.25
2022-12-27T18:14:55.441Z,101480.84
2022-12-27T18:17:28.951Z,101487.94
2022-12-27T18:19:56.530Z,101472.25
2022-12-27T18:22:24.689Z,101478.84
2022-12-27T18:24:51.053Z,101473.56
2022-12-27T18:27:20.352Z,101474.00
2022-12-27T18:29:47.019Z,101470.75
2022-12-27T18:32:17.356Z,101459.50
2022-12-27T18:34:47.741Z,101454.00
2022-12-27T18:37:18.521Z,101443.94
2022-12-27T18:39:51.550Z,101455.78
2022-12-27T18:42:23.491Z,101446.34
2022-12-27T18:44:56.383Z,101442.78
2022-12-27T18:47:25.593Z,101435.50
2022-12-27T18:49:55.571Z,101433.22
2022-12-27T18:52:24.981Z,101439.78
2022-12-27T18:54:53.440Z,101428.94
2022-12-27T18:57:33.161Z,101432.69
2022-12-27T19:00:01.975Z,101422.69
2022-12-27T19:02:35.882Z,101412.56
2022-12-27T19:05:26.647Z,101415.75
2022-12-27T19:07:57.089Z,101409.25
2022-12-27T19:10:27.078Z,101400.00
2022-12-27T19:12:54.264Z,101401.75
2022-12-27T19:15:24.098Z,101403.22
2022-12-27T19:17:55.037Z,101397.81
2022-12-27T19:20:23.391Z,101396.03
2022-12-27T19:22:51.764Z,101400.66
2022-12-27T19:25:22.885Z,101388.81
2022-12-27T19:28:03.287Z,101391.13
2022-12-27T19:30:39.897Z,101389.47
2022-12-27T19:33:13.115Z,101386.34
2022-12-27T19:35:40.410Z,101390.00
2022-12-27T19:38:06.897Z,101390.31
2022-12-27T19:40:33.552Z,101383.94
2022-12-27T19:43:01.344Z,101376.28
2022-12-27T19:45:27.717Z,101380.56
2022-12-27T19:47:54.500Z,101373.44
2022-12-27T19:50:20.919Z,101374.91
2022-12-27T19:52:47.283Z,101378.44
2022-12-27T19:55:21.010Z,101374.19
2022-12-27T19:57:47.377Z,101378.72
2022-12-27T20:00:17.298Z,101373.19
2022-12-27T20:02:43.835Z,101374.34
2022-12-27T20:05:10.827Z,101373.72
2022-12-27T20:07:38.118Z,101366.13
2022-12-27T20:10:05.757Z,101367.97
2022-12-27T20:12:32.205Z,101355.06
2022-12-27T20:14:58.653Z,101348.84
2022-12-27T20:17:26.343Z,101345.19
2022-12-27T20:19:52.901Z,101344.22
2022-12-27T20:22:19.333Z,101337.59
2022-12-27T20:24:45.968Z,101338.53
2022-12-27T20:27:12.376Z,101338.66
2022-12-27T20:29:38.827Z,101345.88
2022-12-27T20:32:05.453Z,101351.69
2022-12-27T20:34:33.192Z,101347.47
2022-12-27T20:36:59.542Z,101340.38
2022-12-27T20:39:25.930Z,101339.22
2022-12-27T20:41:52.358Z,101336.44
2022-12-27T20:44:19.353Z,101334.53
2022-12-27T20:46:45.843Z,101327.06
2022-12-27T20:49:12.244Z,101322.53
2022-12-27T20:51:39.930Z,101313.44
2022-12-27T20:54:06.874Z,101315.63
2022-12-27T20:56:33.217Z,101311.75
2022-12-27T20:58:59.576Z,101321.41
2022-12-27T21:01:26.487Z,101318.09
2022-12-27T21:03:53.881Z,101310.56
2022-12-27T21:06:22.025Z,101312.59
2022-12-27T21:08:56.375Z,101311.09
2022-12-27T21:11:25.794Z,101308.09
2022-12-27T21:13:52.228Z,101310.91
2022-12-27T21:16:21.674Z,101307.00
2022-12-27T21:18:48.865Z,101307.78
2022-12-27T21:21:19.565Z,101308.78
2022-12-27T21:23:46.740Z,101311.03
2022-12-27T21:26:16.336Z,101317.66
2022-12-27T21:28:43.565Z,101312.66
2022-12-27T21:31:11.965Z,101308.78
2022-12-27T21:33:38.406Z,101304.69
2022-12-27T21:36:07.117Z,101314.59
2022-12-27T21:38:34.721Z,101306.34
2022-12-27T21:41:02.797Z,101305.06
2022-12-27T21:43:31.502Z,101303.13
2022-12-27T21:45:58.653Z,101314.16
2022-12-27T21:48:25.259Z,101308.28
2022-12-27T21:50:51.996Z,101307.09
2022-12-27T21:53:19.503Z,101308.75
2022-12-27T21:55:46.714Z,101303.22
2022-12-27T21:58:13.087Z,101302.41
2022-12-27T22:00:40.784Z,101291.09
2022-12-27T22:03:07.442Z,101300.25
2022-12-27T22:05:33.947Z,101288.59
2022-12-27T22:08:00.302Z,101285.16
2022-12-27T22:10:26.696Z,101281.56
2022-12-27T22:12:53.110Z,101278.66
2022-12-27T22:15:20.528Z,101284.59
2022-12-27T22:17:48.280Z,101278.31
2022-12-27T22:20:14.788Z,101284.63
2022-12-27T22:22:41.141Z,101279.94
2022-12-27T22:25:08.671Z,101281.72
2022-12-27T22:27:35.584Z,101276.56
2022-12-27T22:30:02.121Z,101271.41
2022-12-27T22:32:28.720Z,101277.22
2022-12-27T22:34:56.447Z,101261.19
2022-12-27T22:37:22.790Z,101263.56
2022-12-27T22:39:49.182Z,101253.78
2022-12-27T22:42:15.581Z,101256.03
2022-12-27T22:44:44.525Z,101250.28
2022-12-27T22:47:28.013Z,101255.59
2022-12-27T22:49:55.999Z,101259.34
2022-12-27T22:52:22.423Z,101245.78
2022-12-27T22:55:04.691Z,101251.25
2022-12-27T22:57:33.295Z,101252.16
2022-12-27T22:59:59.667Z,101239.38
2022-12-27T23:02:26.082Z,101236.81
2022-12-27T23:04:52.623Z,101235.88
2022-12-27T23:07:20.355Z,101223.47
2022-12-27T23:09:46.747Z,101225.56
2022-12-27T23:12:13.597Z,101224.69
2022-12-27T23:14:40.287Z,101217.81
2022-12-27T23:17:06.677Z,101218.66
2022-12-27T23:19:33.051Z,101217.59
2022-12-27T23:21:59.441Z,101211.78
2022-12-27T23:24:27.184Z,101204.72
2022-12-27T23:26:53.572Z,101204.69
2022-12-27T23:29:23.174Z,101189.06
2022-12-27T23:31:54.508Z,101183.00
2022-12-27T23:34:27.313Z,101180.97
2022-12-27T23:36:54.884Z,101177.34
2022-12-27T23:39:21.261Z,101170.22
2022-12-27T23:41:48.989Z,101162.38
2022-12-27T23:44:17.578Z,101161.84
2022-12-27T23:46:48.897Z,101148.19
2022-12-27T23:49:15.285Z,101139.66
2022-12-27T23:51:41.626Z,101141.84
2022-12-27T23:54:07.982Z,101137.38
2022-12-27T23:56:34.416Z,101134.34
2022-12-27T23:59:02.861Z,101125.94
